Atlanta, GA (31192)

3:31 AM EDT on September 16, 2014 (GMT -0400)
Camp Creek Pkwy / Fulton | Change Station
CLOSE
Current Station
Personal Weather Station
Location: Atlanta, GA
Elevation: 876 ft
Nearby Weather Stations

Elev 876 ft 33.70 °N, 84.59 °W | Updated 3 seconds ago

Overcast
Overcast
69.0 °F
Feels Like 69.0 °F
N
0.0
Wind Variable Wind from WSW
Gusts 0.0 mph

Today
High -- | Low -- °F
--% Chance of Precip.
Yesterday
High -- | Low -- °F
Precip. -- in
7:22 AM 7:43 PM
Waning Gibbous, 48% visible
Pressure 30.08 in
Visibility 6.0 miles
Clouds Few 500 ft
Scattered Clouds 15000 ft
Mostly Cloudy 20000 ft
Overcast 25000 ft
Dew Point 69 °F
Humidity 100%
Rainfall 0.00 in
Snow Depth Not available.
UV 0 out of 12
Pollen 7.50 out of 12
Ozone Good
PM2.5 Moderate
Flu Activity Not available.
METAR KATL 160652Z 00000KT 6SM BR FEW005 SCT150 BKN200 OVC250 22/21 A3010 RMK AO2 RAE0554 SLP185 P0000 T02220211

More Conditions Fewer Conditions

Pressure 30.08 in
Visibility 6.0 miles
Clouds Few 500 ft
Scattered Clouds 15000 ft
Mostly Cloudy 20000 ft
Overcast 25000 ft
Dew Point 69 °F
Humidity 100%
Rainfall 0.00 in
Snow Depth Not available.
UV 0 out of 12
Pollen 7.50 out of 12
Ozone Good
PM2.5 Moderate
Flu Activity Not available.
METAR KATL 160652Z 00000KT 6SM BR FEW005 SCT150 BKN200 OVC250 22/21 A3010 RMK AO2 RAE0554 SLP185 P0000 T02220211

More Conditions Fewer Conditions

10-Day Weather Forecast

Almanac

Astronomy

Sep. 16, 2014 Rise Set
Actual Time 7:22 AM EDT 7:43 PM EDT
Civil Twilight 6:57 AM EDT 8:08 PM EDT
Nautical Twilight 6:28 AM EDT 8:37 PM EDT
Astronomical Twilight 5:58 AM EDT 9:06 PM EDT
Moon 12:43 AM EDT 2:53 PM EDT
Length of Visible Light 13h 10m
Length of Day
12h 20m
Tomorrow will be 2m 3s shorter.
Waning Gibbous, 48% of the Moon is Illuminated
Today
Waning Gibbous
Sep 24
New
Oct 1
First Quarter
Oct 8
Full
Oct 15
Last Quarter

Today's Extremes

State Highs State Lows

Community

WunderPhotos

Upload Photos

1,753,713 photos uploaded!

Nearby

Air Quality

  Air Quality AQ Index Pollutant
Yesterday Good
PM10
Yesterday Good
OZONE
Current Moderate
PM2.5
Current Good
OZONE
Tuesday Good
OZONE
Tuesday Good
PM2.5

Snow Depth

Station Depth Elevation
No new snow has been reported.

Earthquake Activity

City Distance Mag. Time & Date
No recent earthquake activity has been reported nearby.
Minimum magnitude displayed is 2.5.

Coastal Water Temperatures

Place Temperature
No Stations Reporting

Nearby Weather Stations